Time;durP1;ratioP1;P1;durP2;ratioP2;P2;SDS_P1;SDS_P2;PMS_P1;PMS_P2;Temp;Humidity;BMP_temperature;BMP_pressure;BME280_temperature;BME280_humidity;BME280_pressure;Samples;Min_cycle;Max_cycle;Signal;HPM_P1;HPM_P2
2022/10/13 00:00:13;;;;;;;26.63;18.60;;;;;;;;;;5066730;28;20284;-62
2022/10/13 00:02:40;;;;;;;28.07;19.17;;;;;;;;;;5058606;28;20221;-63
2022/10/13 00:05:08;;;;;;;31.10;19.17;;;;;;;;;;5069038;28;20578;-62
2022/10/13 00:07:35;;;;;;;31.27;19.30;;;;;;;;;;5066179;28;20245;-63
2022/10/13 00:10:03;;;;;;;27.40;19.13;;;;;;;;;;5056495;28;20197;-63
2022/10/13 00:12:33;;;;;;;29.80;19.50;;;;;;;;;;5061024;28;20212;-63
2022/10/13 00:15:00;;;;;;;30.57;18.60;;;;;;;;;;5068313;28;20658;-63
2022/10/13 00:17:28;;;;;;;26.67;18.47;;;;;;;;;;5061732;28;20316;-63
2022/10/13 00:19:55;;;;;;;27.83;19.07;;;;;;;;;;5059533;28;20734;-63
2022/10/13 00:22:22;;;;;;;32.67;19.67;;;;;;;;;;5062987;28;20238;-62
2022/10/13 00:24:50;;;;;;;29.13;19.07;;;;;;;;;;5061958;28;20202;-63
2022/10/13 00:27:18;;;;;;;33.50;20.30;;;;;;;;;;5070500;28;20227;-63
2022/10/13 00:29:45;;;;;;;30.03;19.93;;;;;;;;;;5066941;28;20216;-63
2022/10/13 00:32:13;;;;;;;29.67;19.40;;;;;;;;;;5074821;28;20209;-63
2022/10/13 00:34:40;;;;;;;31.27;19.80;;;;;;;;;;5065205;28;20276;-63
2022/10/13 00:37:07;;;;;;;30.60;19.23;;;;;;;;;;5062952;28;20292;-62
2022/10/13 00:39:36;;;;;;;27.50;19.23;;;;;;;;;;5077750;28;20274;-63
2022/10/13 00:42:04;;;;;;;33.80;19.33;;;;;;;;;;5063030;28;20196;-63
2022/10/13 00:44:50;;;;;;;32.80;19.90;;;;;;;;;;5059455;28;20363;-62
2022/10/13 00:47:18;;;;;;;29.80;18.57;;;;;;;;;;5057682;28;20221;-63
2022/10/13 00:49:45;;;;;;;28.27;18.57;;;;;;;;;;5073300;28;20207;-62
2022/10/13 00:52:13;;;;;;;28.63;18.23;;;;;;;;;;5057951;28;21164;-63
2022/10/13 00:54:41;;;;;;;27.13;18.40;;;;;;;;;;5070653;28;20214;-62
2022/10/13 00:57:09;;;;;;;27.03;18.60;;;;;;;;;;5060477;28;20238;-62
2022/10/13 00:59:37;;;;;;;25.17;17.93;;;;;;;;;;5060091;28;20202;-63
2022/10/13 01:02:04;;;;;;;25.03;17.30;;;;;;;;;;5055768;28;20194;-62
2022/10/13 01:04:36;;;;;;;29.13;18.63;;;;;;;;;;5059996;28;20283;-63
2022/10/13 01:07:03;;;;;;;29.27;19.30;;;;;;;;;;5060670;28;20228;-62
2022/10/13 01:09:36;;;;;;;32.80;18.27;;;;;;;;;;5053496;28;20207;-62
2022/10/13 01:12:03;;;;;;;27.40;18.27;;;;;;;;;;5054636;28;20335;-63
2022/10/13 01:14:38;;;;;;;26.70;18.37;;;;;;;;;;5072868;28;20261;-63
2022/10/13 01:17:08;;;;;;;28.90;18.73;;;;;;;;;;5057956;28;20678;-63
2022/10/13 01:19:35;;;;;;;30.83;17.97;;;;;;;;;;5057661;28;20213;-63
2022/10/13 01:22:06;;;;;;;30.53;19.50;;;;;;;;;;5070045;28;20255;-63
2022/10/13 01:24:44;;;;;;;26.63;18.40;;;;;;;;;;5066899;28;20240;-63
2022/10/13 01:27:17;;;;;;;25.10;17.77;;;;;;;;;;5067835;28;20602;-63
2022/10/13 01:30:00;;;;;;;31.63;20.03;;;;;;;;;;5067300;28;20281;-63
2022/10/13 01:32:31;;;;;;;34.27;18.90;;;;;;;;;;5074500;28;20305;-63
2022/10/13 01:35:07;;;;;;;30.53;19.63;;;;;;;;;;5068296;28;20623;-63
2022/10/13 01:37:44;;;;;;;31.60;20.60;;;;;;;;;;5057315;28;20462;-62
2022/10/13 01:40:18;;;;;;;34.83;21.17;;;;;;;;;;5063692;28;20285;-63
2022/10/13 01:43:01;;;;;;;32.70;21.00;;;;;;;;;;5068057;28;20210;-63
2022/10/13 01:45:35;;;;;;;34.13;21.53;;;;;;;;;;5069595;28;20679;-62
2022/10/13 01:48:04;;;;;;;35.10;22.77;;;;;;;;;;5068776;28;20716;-63
2022/10/13 01:50:32;;;;;;;38.57;22.87;;;;;;;;;;5062869;28;20280;-64
2022/10/13 01:53:01;;;;;;;35.83;22.80;;;;;;;;;;5068727;28;20233;-63
2022/10/13 01:55:30;;;;;;;36.00;23.33;;;;;;;;;;5065341;28;20280;-63
2022/10/13 01:57:58;;;;;;;39.10;22.87;;;;;;;;;;5060728;28;20227;-63
2022/10/13 02:00:25;;;;;;;38.03;22.50;;;;;;;;;;5060360;28;20203;-64
2022/10/13 02:03:12;;;;;;;32.90;22.17;;;;;;;;;;5061884;28;20202;-62
2022/10/13 02:05:39;;;;;;;36.83;22.50;;;;;;;;;;5056239;28;20304;-62
2022/10/13 02:08:16;;;;;;;40.70;22.63;;;;;;;;;;5058364;28;20225;-63
2022/10/13 02:10:51;;;;;;;36.13;22.37;;;;;;;;;;5062788;28;20348;-63
2022/10/13 02:13:20;;;;;;;35.30;22.03;;;;;;;;;;5062416;28;20296;-62
2022/10/13 02:15:53;;;;;;;34.87;22.43;;;;;;;;;;5064294;28;20714;-63
2022/10/13 02:18:23;;;;;;;37.93;23.23;;;;;;;;;;5051378;28;20616;-62
2022/10/13 02:20:52;;;;;;;33.83;22.13;;;;;;;;;;5064036;28;20201;-62
2022/10/13 02:23:19;;;;;;;40.00;21.70;;;;;;;;;;5084302;28;20290;-63
2022/10/13 02:25:47;;;;;;;45.80;21.27;;;;;;;;;;5066310;28;20293;-63
2022/10/13 02:28:14;;;;;;;34.60;22.17;;;;;;;;;;5058233;28;20656;-63
2022/10/13 02:30:42;;;;;;;36.33;21.80;;;;;;;;;;5057157;28;20202;-62
2022/10/13 02:33:10;;;;;;;37.07;22.63;;;;;;;;;;5068181;28;20317;-63
2022/10/13 02:35:38;;;;;;;39.70;22.13;;;;;;;;;;5068282;28;20693;-63
2022/10/13 02:38:06;;;;;;;35.73;21.27;;;;;;;;;;5064579;28;20817;-63
2022/10/13 02:40:33;;;;;;;41.03;22.97;;;;;;;;;;5069872;28;20297;-63
2022/10/13 02:43:00;;;;;;;40.23;21.03;;;;;;;;;;5062988;28;20197;-63
2022/10/13 02:45:27;;;;;;;34.23;20.90;;;;;;;;;;5057222;28;20206;-62
2022/10/13 02:47:56;;;;;;;38.20;22.63;;;;;;;;;;5061487;28;20691;-62
2022/10/13 02:50:24;;;;;;;34.13;21.27;;;;;;;;;;5066855;28;20305;-61
2022/10/13 02:52:51;;;;;;;35.47;20.93;;;;;;;;;;5066597;28;21535;-62
2022/10/13 02:55:18;;;;;;;29.70;19.93;;;;;;;;;;5067187;28;20201;-62
2022/10/13 02:57:46;;;;;;;33.13;19.80;;;;;;;;;;5070809;28;20752;-62
2022/10/13 03:00:13;;;;;;;30.30;18.90;;;;;;;;;;5065557;28;20204;-62
2022/10/13 03:02:41;;;;;;;30.17;20.30;;;;;;;;;;5062614;28;20233;-62
2022/10/13 03:05:09;;;;;;;31.00;19.43;;;;;;;;;;5052749;28;20661;-62
2022/10/13 03:07:36;;;;;;;29.13;18.60;;;;;;;;;;5066470;28;20223;-62
2022/10/13 03:10:04;;;;;;;30.70;19.63;;;;;;;;;;5063671;28;20288;-62
2022/10/13 03:12:31;;;;;;;32.30;19.77;;;;;;;;;;5068435;28;20256;-63
2022/10/13 03:14:58;;;;;;;29.73;20.07;;;;;;;;;;5062685;28;20201;-63
2022/10/13 03:17:26;;;;;;;28.87;20.23;;;;;;;;;;5061617;28;20307;-61
2022/10/13 03:19:53;;;;;;;27.90;18.70;;;;;;;;;;5059209;28;20289;-63
2022/10/13 03:22:20;;;;;;;35.10;17.80;;;;;;;;;;5071660;28;20280;-63
2022/10/13 03:24:48;;;;;;;25.10;16.50;;;;;;;;;;5066203;28;20291;-61
2022/10/13 03:27:16;;;;;;;25.87;17.73;;;;;;;;;;5055118;28;20228;-61
2022/10/13 03:29:43;;;;;;;26.93;18.33;;;;;;;;;;5061974;28;20214;-62
2022/10/13 03:32:10;;;;;;;28.80;17.70;;;;;;;;;;5061557;28;20232;-62
2022/10/13 03:34:38;;;;;;;33.50;18.47;;;;;;;;;;5066511;28;20209;-63
2022/10/13 03:37:05;;;;;;;37.63;20.13;;;;;;;;;;5067045;28;20231;-63
2022/10/13 03:39:32;;;;;;;39.53;20.13;;;;;;;;;;5067014;28;20225;-62
2022/10/13 03:42:00;;;;;;;35.23;19.90;;;;;;;;;;5058977;28;20289;-62
2022/10/13 03:44:27;;;;;;;40.07;19.53;;;;;;;;;;5055510;28;20655;-61
2022/10/13 03:46:54;;;;;;;39.67;18.13;;;;;;;;;;5070488;28;20249;-61
2022/10/13 03:49:22;;;;;;;36.33;18.23;;;;;;;;;;5061972;28;20232;-61
2022/10/13 03:51:49;;;;;;;39.77;19.13;;;;;;;;;;5059077;28;20206;-61
2022/10/13 03:54:17;;;;;;;27.43;18.30;;;;;;;;;;5062591;28;20277;-61
2022/10/13 03:56:44;;;;;;;34.67;19.20;;;;;;;;;;5066525;28;20245;-63
2022/10/13 03:59:15;;;;;;;30.53;16.70;;;;;;;;;;5053007;28;20296;-63
2022/10/13 04:01:42;;;;;;;28.50;15.67;;;;;;;;;;5061152;28;20204;-63
2022/10/13 04:04:11;;;;;;;29.93;16.97;;;;;;;;;;5056410;28;20649;-60
2022/10/13 04:06:39;;;;;;;32.80;17.30;;;;;;;;;;5058735;28;20210;-62
2022/10/13 04:09:06;;;;;;;25.30;16.47;;;;;;;;;;5058518;28;20201;-62
2022/10/13 04:11:34;;;;;;;30.10;16.67;;;;;;;;;;5065997;28;20208;-63
2022/10/13 04:14:01;;;;;;;30.37;16.73;;;;;;;;;;5065404;28;20571;-63
2022/10/13 04:16:30;;;;;;;33.53;16.87;;;;;;;;;;5061788;28;20392;-63
2022/10/13 04:18:57;;;;;;;27.47;17.47;;;;;;;;;;5068575;28;20265;-61
2022/10/13 04:21:25;;;;;;;27.07;17.20;;;;;;;;;;5062930;28;20220;-62
2022/10/13 04:23:58;;;;;;;24.93;16.37;;;;;;;;;;5066425;28;20202;-63
2022/10/13 04:26:28;;;;;;;25.90;17.20;;;;;;;;;;5063193;28;20209;-61
2022/10/13 04:28:55;;;;;;;26.57;17.63;;;;;;;;;;5045056;28;20208;-61
2022/10/13 04:31:23;;;;;;;28.10;17.07;;;;;;;;;;5040637;28;20752;-61
2022/10/13 04:33:51;;;;;;;26.97;16.73;;;;;;;;;;5054002;28;20238;-62
2022/10/13 04:36:19;;;;;;;22.20;16.03;;;;;;;;;;5077809;28;20202;-62
2022/10/13 04:38:46;;;;;;;29.67;16.47;;;;;;;;;;5068978;28;20355;-61
2022/10/13 04:41:15;;;;;;;26.87;15.93;;;;;;;;;;5057129;28;20292;-60
2022/10/13 04:43:43;;;;;;;25.17;15.67;;;;;;;;;;5053320;28;20217;-61
2022/10/13 04:46:13;;;;;;;25.63;16.97;;;;;;;;;;5043970;28;20205;-61
2022/10/13 04:48:41;;;;;;;35.80;14.47;;;;;;;;;;5055298;28;20229;-62
2022/10/13 04:51:09;;;;;;;22.60;14.63;;;;;;;;;;5051476;28;20214;-62
2022/10/13 04:53:37;;;;;;;34.23;14.60;;;;;;;;;;5055878;28;20197;-62
2022/10/13 04:56:07;;;;;;;28.17;13.93;;;;;;;;;;5062820;28;20216;-61
2022/10/13 04:58:35;;;;;;;26.30;14.07;;;;;;;;;;5076827;28;20320;-61
2022/10/13 05:01:02;;;;;;;22.93;13.70;;;;;;;;;;5060905;28;20204;-63
2022/10/13 05:03:30;;;;;;;25.93;13.27;;;;;;;;;;5062167;28;20205;-63
2022/10/13 05:05:57;;;;;;;19.63;13.50;;;;;;;;;;5072562;28;20971;-63
2022/10/13 05:08:25;;;;;;;25.10;13.50;;;;;;;;;;5065919;28;20315;-63
2022/10/13 05:11:01;;;;;;;20.63;12.93;;;;;;;;;;5066013;28;20193;-61
2022/10/13 05:13:29;;;;;;;23.43;13.47;;;;;;;;;;5067544;28;20266;-63
2022/10/13 05:15:56;;;;;;;26.13;13.23;;;;;;;;;;5071988;28;20301;-62
2022/10/13 05:18:24;;;;;;;27.53;13.60;;;;;;;;;;5060414;28;20230;-63
2022/10/13 05:20:51;;;;;;;30.87;13.77;;;;;;;;;;5053997;28;20343;-62
2022/10/13 05:23:18;;;;;;;26.03;14.57;;;;;;;;;;5056154;28;20255;-61
2022/10/13 05:25:46;;;;;;;23.20;14.30;;;;;;;;;;5057713;28;23514;-63
2022/10/13 05:28:13;;;;;;;20.07;13.60;;;;;;;;;;5053153;28;20617;-63
2022/10/13 05:30:40;;;;;;;29.10;14.90;;;;;;;;;;5076177;28;20337;-62
2022/10/13 05:33:08;;;;;;;27.87;16.60;;;;;;;;;;5053799;28;20216;-63
2022/10/13 05:35:36;;;;;;;27.47;14.93;;;;;;;;;;5049700;28;20217;-62
2022/10/13 05:38:03;;;;;;;27.07;15.80;;;;;;;;;;5050497;28;20303;-62
2022/10/13 05:40:30;;;;;;;29.13;16.60;;;;;;;;;;5068648;28;20639;-63
2022/10/13 05:42:58;;;;;;;33.77;17.50;;;;;;;;;;5057403;28;20844;-64
2022/10/13 05:45:27;;;;;;;41.10;17.17;;;;;;;;;;5056653;28;20288;-63
2022/10/13 05:47:54;;;;;;;29.20;17.57;;;;;;;;;;5061121;28;20348;-63
2022/10/13 05:50:22;;;;;;;28.23;16.97;;;;;;;;;;5048957;28;20201;-63
2022/10/13 05:52:49;;;;;;;26.03;16.97;;;;;;;;;;5057692;28;20739;-63
2022/10/13 05:55:18;;;;;;;28.37;15.93;;;;;;;;;;5060223;28;20293;-63
2022/10/13 05:57:48;;;;;;;28.77;18.00;;;;;;;;;;5068790;28;20235;-63
2022/10/13 06:00:16;;;;;;;29.83;17.37;;;;;;;;;;5063095;28;20251;-64
2022/10/13 06:03:07;;;;;;;27.87;17.47;;;;;;;;;;5066946;28;20206;-63
2022/10/13 06:05:34;;;;;;;26.27;16.63;;;;;;;;;;5058940;28;20205;-60
2022/10/13 06:08:01;;;;;;;28.47;17.83;;;;;;;;;;5061719;28;20251;-63
2022/10/13 06:10:29;;;;;;;25.60;16.67;;;;;;;;;;5066004;28;20201;-63
2022/10/13 06:12:56;;;;;;;24.30;16.40;;;;;;;;;;5060641;28;20221;-63
2022/10/13 06:15:23;;;;;;;28.30;17.00;;;;;;;;;;5061526;28;20300;-61
2022/10/13 06:17:54;;;;;;;23.37;16.30;;;;;;;;;;5057810;28;20705;-62
2022/10/13 06:20:21;;;;;;;28.37;17.80;;;;;;;;;;5058964;28;20197;-62
2022/10/13 06:22:49;;;;;;;24.43;16.80;;;;;;;;;;5054883;28;20241;-62
2022/10/13 06:25:17;;;;;;;24.53;16.63;;;;;;;;;;5053605;28;20319;-62
2022/10/13 06:27:44;;;;;;;24.57;17.00;;;;;;;;;;5067821;28;20328;-62
2022/10/13 06:30:12;;;;;;;22.57;15.07;;;;;;;;;;5058339;28;20618;-62
2022/10/13 06:32:39;;;;;;;28.40;16.57;;;;;;;;;;5062227;28;20212;-62
2022/10/13 06:35:06;;;;;;;23.80;16.03;;;;;;;;;;5065890;28;20297;-62
2022/10/13 06:37:34;;;;;;;24.63;15.23;;;;;;;;;;5059707;28;20539;-62
2022/10/13 06:40:01;;;;;;;22.77;15.70;;;;;;;;;;5065394;28;20317;-62
2022/10/13 06:42:30;;;;;;;26.53;15.00;;;;;;;;;;5059181;28;21054;-62
2022/10/13 06:44:57;;;;;;;25.63;14.50;;;;;;;;;;5061107;28;20259;-63
2022/10/13 06:47:25;;;;;;;24.77;15.03;;;;;;;;;;5057605;28;20226;-62
2022/10/13 06:49:52;;;;;;;24.33;15.20;;;;;;;;;;5067396;28;20620;-62
2022/10/13 06:52:20;;;;;;;23.97;15.20;;;;;;;;;;5065881;28;20316;-62
2022/10/13 06:54:47;;;;;;;22.20;15.23;;;;;;;;;;5071443;28;20217;-62
2022/10/13 06:57:15;;;;;;;22.93;15.30;;;;;;;;;;5059857;28;20225;-63
2022/10/13 06:59:43;;;;;;;23.70;14.53;;;;;;;;;;5050232;28;20195;-62
2022/10/13 07:02:13;;;;;;;23.53;14.27;;;;;;;;;;5045826;28;21590;-62
2022/10/13 07:04:41;;;;;;;23.90;15.00;;;;;;;;;;5048019;28;20216;-63
2022/10/13 07:07:08;;;;;;;21.33;13.93;;;;;;;;;;5058596;28;20225;-63
2022/10/13 07:09:35;;;;;;;22.73;13.47;;;;;;;;;;5058567;28;20224;-63
2022/10/13 07:12:03;;;;;;;21.60;13.27;;;;;;;;;;5053519;28;20206;-62
2022/10/13 07:14:30;;;;;;;23.37;13.40;;;;;;;;;;5059268;28;20233;-63
2022/10/13 07:16:58;;;;;;;24.47;14.33;;;;;;;;;;5056320;28;20308;-63
2022/10/13 07:19:26;;;;;;;24.17;14.00;;;;;;;;;;5060723;28;20241;-63
2022/10/13 07:21:53;;;;;;;20.23;14.00;;;;;;;;;;5060669;28;20618;-63
2022/10/13 07:24:22;;;;;;;21.00;13.47;;;;;;;;;;5058358;28;20597;-60
2022/10/13 07:26:49;;;;;;;16.53;12.83;;;;;;;;;;5054722;28;20336;-61
2022/10/13 07:29:16;;;;;;;21.73;13.33;;;;;;;;;;5068594;28;20316;-61
2022/10/13 07:31:45;;;;;;;20.20;12.33;;;;;;;;;;5059343;28;20301;-60
2022/10/13 07:34:12;;;;;;;19.13;12.63;;;;;;;;;;5064265;28;20282;-63
2022/10/13 07:36:40;;;;;;;19.00;12.57;;;;;;;;;;5061141;28;20271;-64
2022/10/13 07:39:09;;;;;;;18.90;13.40;;;;;;;;;;5059251;28;20221;-61
2022/10/13 07:41:37;;;;;;;15.23;11.47;;;;;;;;;;5059013;28;20324;-61
2022/10/13 07:44:04;;;;;;;21.73;12.63;;;;;;;;;;5060748;28;20293;-61
2022/10/13 07:46:31;;;;;;;17.43;11.37;;;;;;;;;;5065039;28;20654;-62
2022/10/13 07:49:00;;;;;;;17.70;11.55;;;;;;;;;;5064709;28;20205;-62
2022/10/13 07:51:27;;;;;;;16.95;10.95;;;;;;;;;;5059742;28;20300;-61
2022/10/13 07:53:54;;;;;;;19.58;11.13;;;;;;;;;;5059033;28;20297;-61
2022/10/13 07:56:22;;;;;;;19.75;11.95;;;;;;;;;;5049318;28;20210;-61
2022/10/13 07:58:49;;;;;;;15.73;11.23;;;;;;;;;;5059395;28;20312;-62
2022/10/13 08:01:17;;;;;;;18.25;12.05;;;;;;;;;;5056528;28;20280;-63
2022/10/13 08:03:45;;;;;;;18.45;11.82;;;;;;;;;;5054820;28;20206;-61
2022/10/13 08:06:17;;;;;;;20.25;12.25;;;;;;;;;;5047728;28;20225;-63
2022/10/13 08:08:44;;;;;;;18.75;12.27;;;;;;;;;;5057468;28;20252;-61
2022/10/13 08:11:13;;;;;;;17.15;12.35;;;;;;;;;;5058179;28;20229;-61
2022/10/13 08:13:46;;;;;;;18.45;12.63;;;;;;;;;;5060330;28;20230;-61
2022/10/13 08:16:14;;;;;;;20.95;12.43;;;;;;;;;;5058694;28;20685;-61
2022/10/13 08:18:41;;;;;;;18.52;12.55;;;;;;;;;;5054951;28;20253;-61
2022/10/13 08:21:12;;;;;;;24.58;13.15;;;;;;;;;;5059524;28;20289;-62
2022/10/13 08:23:59;;;;;;;18.00;12.88;;;;;;;;;;5059458;28;20810;-62
2022/10/13 08:26:28;;;;;;;20.08;14.27;;;;;;;;;;5055158;28;20285;-62
2022/10/13 08:28:55;;;;;;;20.67;13.38;;;;;;;;;;5056035;28;20214;-61
2022/10/13 08:31:43;;;;;;;20.02;12.93;;;;;;;;;;5060346;28;20217;-62
2022/10/13 08:34:12;;;;;;;22.10;11.98;;;;;;;;;;5048481;28;20214;-61
2022/10/13 08:36:39;;;;;;;16.33;11.90;;;;;;;;;;5053847;28;20213;-62
2022/10/13 08:39:07;;;;;;;24.38;12.82;;;;;;;;;;5055176;28;20221;-63
2022/10/13 08:41:39;;;;;;;16.65;11.40;;;;;;;;;;5055078;28;20199;-63
2022/10/13 08:44:07;;;;;;;17.75;12.00;;;;;;;;;;5066934;28;20296;-62
2022/10/13 08:47:24;;;;;;;15.35;11.40;;;;;;;;;;5058013;28;20786;-61
2022/10/13 08:49:52;;;;;;;18.50;11.43;;;;;;;;;;4981892;28;20211;-61
2022/10/13 08:52:27;;;;;;;17.25;12.45;;;;;;;;;;5056790;28;20212;-64
2022/10/13 08:54:57;;;;;;;18.50;11.57;;;;;;;;;;5059916;28;20297;-61
2022/10/13 08:57:24;;;;;;;19.55;11.68;;;;;;;;;;5056813;28;20327;-62
2022/10/13 08:59:52;;;;;;;18.80;12.02;;;;;;;;;;5055341;28;20225;-62
2022/10/13 09:02:26;;;;;;;19.73;11.63;;;;;;;;;;5060232;28;20202;-62
2022/10/13 09:04:53;;;;;;;21.25;11.82;;;;;;;;;;5072692;28;20297;-63
2022/10/13 09:07:24;;;;;;;18.52;11.32;;;;;;;;;;5059672;28;20213;-61
2022/10/13 09:09:52;;;;;;;19.50;11.45;;;;;;;;;;5064163;28;20231;-62
2022/10/13 09:12:23;;;;;;;16.95;10.77;;;;;;;;;;5062255;28;20205;-63
2022/10/13 09:14:58;;;;;;;21.98;12.27;;;;;;;;;;5051089;28;20241;-61
2022/10/13 09:17:27;;;;;;;15.13;11.23;;;;;;;;;;5062261;28;20311;-62
2022/10/13 09:19:58;;;;;;;16.92;9.88;;;;;;;;;;5063177;28;20631;-61
2022/10/13 09:22:39;;;;;;;13.02;10.27;;;;;;;;;;5053312;28;20330;-63
2022/10/13 09:25:06;;;;;;;14.57;10.18;;;;;;;;;;5057521;28;20197;-61
2022/10/13 09:27:52;;;;;;;15.43;9.95;;;;;;;;;;5056020;28;20309;-61
2022/10/13 09:30:24;;;;;;;14.80;10.70;;;;;;;;;;5058272;28;20197;-62
2022/10/13 09:32:59;;;;;;;15.00;9.98;;;;;;;;;;5063252;28;20210;-63
2022/10/13 09:35:26;;;;;;;16.02;9.82;;;;;;;;;;5064400;28;20591;-63
2022/10/13 09:38:08;;;;;;;15.43;10.25;;;;;;;;;;5064172;28;20239;-61
2022/10/13 09:40:36;;;;;;;17.10;10.10;;;;;;;;;;5067651;28;20532;-62
2022/10/13 09:43:06;;;;;;;13.77;9.40;;;;;;;;;;5065995;28;20201;-62
2022/10/13 09:45:34;;;;;;;17.92;10.35;;;;;;;;;;5065757;28;20226;-62
2022/10/13 09:48:06;;;;;;;15.40;9.95;;;;;;;;;;5064094;28;20270;-62
2022/10/13 09:50:35;;;;;;;14.02;9.35;;;;;;;;;;5076318;28;20304;-62
2022/10/13 09:53:21;;;;;;;14.05;9.80;;;;;;;;;;5081283;28;20672;-62
2022/10/13 09:55:48;;;;;;;14.20;9.80;;;;;;;;;;5061031;28;20360;-63
2022/10/13 09:58:26;;;;;;;12.15;9.18;;;;;;;;;;5062817;28;20747;-63
2022/10/13 10:00:53;;;;;;;14.02;9.73;;;;;;;;;;5063061;28;20209;-61
2022/10/13 10:03:24;;;;;;;16.70;9.75;;;;;;;;;;5069193;28;20300;-63
2022/10/13 10:05:55;;;;;;;13.45;10.00;;;;;;;;;;5047390;28;20297;-61
2022/10/13 10:08:45;;;;;;;16.85;9.25;;;;;;;;;;5037498;28;20616;-63
2022/10/13 10:11:51;;;;;;;13.68;9.27;;;;;;;;;;5054916;28;20214;-62
2022/10/13 10:14:24;;;;;;;14.40;10.18;;;;;;;;;;5053602;28;20261;-61
2022/10/13 10:17:11;;;;;;;15.18;10.35;;;;;;;;;;5049572;28;20266;-64
2022/10/13 10:19:47;;;;;;;13.80;9.82;;;;;;;;;;5029106;28;20229;-63
2022/10/13 10:22:38;;;;;;;15.23;9.30;;;;;;;;;;5042331;28;20295;-63
2022/10/13 10:25:24;;;;;;;15.30;9.88;;;;;;;;;;5038025;28;20285;-63
2022/10/13 10:27:58;;;;;;;19.25;10.15;;;;;;;;;;5054739;28;20396;-63
2022/10/13 10:30:25;;;;;;;19.17;10.93;;;;;;;;;;5064008;28;20247;-63
2022/10/13 10:32:59;;;;;;;15.63;10.40;;;;;;;;;;5043350;28;20221;-64
2022/10/13 10:35:38;;;;;;;14.10;10.57;;;;;;;;;;5058856;28;20293;-62
2022/10/13 10:38:12;;;;;;;18.25;11.70;;;;;;;;;;5046361;28;20221;-61
2022/10/13 10:40:51;;;;;;;18.95;11.45;;;;;;;;;;5063875;28;20197;-62
2022/10/13 10:43:25;;;;;;;17.70;11.27;;;;;;;;;;5065578;28;20288;-61
2022/10/13 10:45:55;;;;;;;18.00;11.48;;;;;;;;;;5059356;28;20198;-62
2022/10/13 10:48:25;;;;;;;16.52;11.25;;;;;;;;;;5064326;28;20634;-61
2022/10/13 10:50:53;;;;;;;16.05;11.10;;;;;;;;;;5066711;28;20205;-61
2022/10/13 10:53:20;;;;;;;16.15;10.55;;;;;;;;;;5060721;28;20293;-62
2022/10/13 10:55:47;;;;;;;13.93;9.95;;;;;;;;;;5069694;28;20271;-61
2022/10/13 10:58:21;;;;;;;16.33;11.30;;;;;;;;;;5063769;28;20235;-64
2022/10/13 11:00:56;;;;;;;14.88;9.85;;;;;;;;;;5067890;28;20229;-60
2022/10/13 11:03:30;;;;;;;15.38;10.10;;;;;;;;;;5064935;28;20284;-62
2022/10/13 11:05:57;;;;;;;15.20;10.73;;;;;;;;;;5072259;28;20206;-62
2022/10/13 11:08:30;;;;;;;16.77;10.98;;;;;;;;;;5063435;28;20539;-63
2022/10/13 11:11:21;;;;;;;14.38;10.65;;;;;;;;;;5063279;28;20289;-63
2022/10/13 11:13:58;;;;;;;18.05;10.10;;;;;;;;;;5059711;28;20222;-63
2022/10/13 11:16:28;;;;;;;15.77;10.07;;;;;;;;;;5058056;28;20209;-64
2022/10/13 11:18:58;;;;;;;15.73;9.90;;;;;;;;;;5069801;28;20228;-64
2022/10/13 11:21:25;;;;;;;24.52;11.52;;;;;;;;;;5066353;28;20214;-63
2022/10/13 11:23:53;;;;;;;17.65;11.68;;;;;;;;;;5068046;28;20250;-62
2022/10/13 11:26:25;;;;;;;13.98;10.30;;;;;;;;;;5064174;28;22091;-63
2022/10/13 11:28:53;;;;;;;13.35;10.38;;;;;;;;;;5065378;28;20202;-63
2022/10/13 11:31:44;;;;;;;17.67;10.50;;;;;;;;;;5071641;28;20619;-63
2022/10/13 11:34:28;;;;;;;16.55;10.93;;;;;;;;;;5061318;28;20296;-63
2022/10/13 11:36:57;;;;;;;17.60;11.55;;;;;;;;;;5072180;28;20645;-63
2022/10/13 11:39:27;;;;;;;15.80;11.00;;;;;;;;;;5067674;28;20304;-63
2022/10/13 11:42:02;;;;;;;13.38;10.98;;;;;;;;;;5063983;28;20270;-63
2022/10/13 11:44:45;;;;;;;18.88;12.50;;;;;;;;;;5065345;28;20224;-63
2022/10/13 11:47:25;;;;;;;15.25;11.77;;;;;;;;;;5064870;28;20221;-63
2022/10/13 11:50:12;;;;;;;15.82;11.52;;;;;;;;;;5049719;28;20208;-63
2022/10/13 11:53:00;;;;;;;17.90;11.00;;;;;;;;;;5077911;28;20300;-62
2022/10/13 11:55:46;;;;;;;17.25;11.68;;;;;;;;;;5054533;28;20212;-63
2022/10/13 11:58:22;;;;;;;17.02;11.45;;;;;;;;;;5065145;28;20280;-63
2022/10/13 12:00:57;;;;;;;15.30;10.35;;;;;;;;;;5061307;28;20289;-63
2022/10/13 12:03:29;;;;;;;16.17;10.80;;;;;;;;;;5060841;28;20657;-63
2022/10/13 12:06:15;;;;;;;18.95;10.93;;;;;;;;;;5056913;28;20201;-63
2022/10/13 12:08:45;;;;;;;14.90;10.23;;;;;;;;;;5058836;28;20228;-63
2022/10/13 12:11:26;;;;;;;14.50;9.70;;;;;;;;;;5063348;28;20321;-63
2022/10/13 12:13:54;;;;;;;16.50;10.35;;;;;;;;;;5056789;28;20295;-63
2022/10/13 12:16:21;;;;;;;15.50;10.18;;;;;;;;;;5065126;28;20324;-63
2022/10/13 12:18:49;;;;;;;16.45;9.73;;;;;;;;;;5067235;28;20311;-63
2022/10/13 12:21:19;;;;;;;20.50;9.85;;;;;;;;;;5059726;28;20197;-63
2022/10/13 12:23:47;;;;;;;16.70;10.93;;;;;;;;;;5056764;28;20229;-63
2022/10/13 12:26:16;;;;;;;12.85;10.30;;;;;;;;;;5070581;28;20213;-63
2022/10/13 12:28:56;;;;;;;16.38;10.23;;;;;;;;;;5063399;28;20696;-63
2022/10/13 12:31:26;;;;;;;15.38;10.30;;;;;;;;;;5063490;28;20220;-63
2022/10/13 12:33:58;;;;;;;13.57;9.70;;;;;;;;;;5069462;28;20266;-61
2022/10/13 12:36:29;;;;;;;14.45;10.50;;;;;;;;;;5058350;28;20229;-62
2022/10/13 12:39:17;;;;;;;15.43;9.55;;;;;;;;;;5060231;28;20746;-62
2022/10/13 12:41:46;;;;;;;14.82;9.27;;;;;;;;;;5070423;28;20231;-63
2022/10/13 12:44:14;;;;;;;16.13;9.32;;;;;;;;;;5057300;28;20685;-61
2022/10/13 12:46:43;;;;;;;13.02;8.75;;;;;;;;;;5060763;28;20589;-61
2022/10/13 12:49:15;;;;;;;14.38;9.98;;;;;;;;;;5074866;28;20296;-62
2022/10/13 12:51:44;;;;;;;14.82;10.35;;;;;;;;;;5063262;28;20221;-64
2022/10/13 12:54:18;;;;;;;13.50;9.10;;;;;;;;;;5058829;28;20219;-63
2022/10/13 12:56:45;;;;;;;11.57;8.95;;;;;;;;;;5055270;28;20308;-62
2022/10/13 12:59:17;;;;;;;16.05;8.57;;;;;;;;;;5055859;28;20312;-62
2022/10/13 13:01:44;;;;;;;15.38;8.40;;;;;;;;;;5047014;28;20254;-62
2022/10/13 13:04:32;;;;;;;11.10;7.65;;;;;;;;;;5057644;28;20743;-62
2022/10/13 13:07:01;;;;;;;10.48;7.05;;;;;;;;;;5060037;28;20679;-62
2022/10/13 13:09:33;;;;;;;10.85;7.05;;;;;;;;;;5074587;28;20657;-62
2022/10/13 13:12:03;;;;;;;12.50;8.45;;;;;;;;;;5074622;28;20229;-62
2022/10/13 13:14:37;;;;;;;12.07;8.50;;;;;;;;;;5058798;28;20304;-61
2022/10/13 13:17:11;;;;;;;12.35;9.13;;;;;;;;;;5065190;28;20221;-62
2022/10/13 13:19:39;;;;;;;13.10;9.48;;;;;;;;;;5061653;28;20242;-61
2022/10/13 13:22:07;;;;;;;15.00;10.32;;;;;;;;;;5063355;28;20201;-63
2022/10/13 13:24:35;;;;;;;18.05;10.18;;;;;;;;;;5059413;28;20198;-63
2022/10/13 13:27:17;;;;;;;13.05;10.82;;;;;;;;;;5065035;28;20316;-61
2022/10/13 13:29:45;;;;;;;13.65;11.00;;;;;;;;;;5068249;28;20331;-61
2022/10/13 13:32:13;;;;;;;14.57;9.48;;;;;;;;;;5066077;28;20210;-62
2022/10/13 13:34:41;;;;;;;11.15;8.52;;;;;;;;;;5064781;28;20233;-63
2022/10/13 13:37:28;;;;;;;11.40;9.00;;;;;;;;;;5061653;28;20231;-63
2022/10/13 13:40:03;;;;;;;11.95;9.10;;;;;;;;;;5062670;28;20670;-63
2022/10/13 13:42:31;;;;;;;18.05;9.25;;;;;;;;;;5065036;28;20702;-61
2022/10/13 13:44:58;;;;;;;14.88;9.32;;;;;;;;;;5062051;28;20666;-61
2022/10/13 13:47:27;;;;;;;12.05;9.02;;;;;;;;;;5060125;28;20329;-63
2022/10/13 13:49:56;;;;;;;12.00;8.77;;;;;;;;;;5062545;28;20800;-65
2022/10/13 13:52:24;;;;;;;11.95;9.10;;;;;;;;;;5060169;28;20300;-64
2022/10/13 13:54:52;;;;;;;12.15;9.43;;;;;;;;;;5056120;28;20671;-62
2022/10/13 13:57:19;;;;;;;11.43;8.68;;;;;;;;;;5045611;28;20225;-62
2022/10/13 13:59:47;;;;;;;14.93;9.18;;;;;;;;;;5068127;28;20232;-62
2022/10/13 14:02:19;;;;;;;16.35;8.90;;;;;;;;;;5060295;28;20301;-62
2022/10/13 14:04:47;;;;;;;12.75;9.60;;;;;;;;;;5063997;28;20279;-62
2022/10/13 14:07:16;;;;;;;14.68;10.45;;;;;;;;;;5060026;28;20309;-62
2022/10/13 14:09:44;;;;;;;12.68;9.57;;;;;;;;;;5064427;28;20274;-62
2022/10/13 14:12:12;;;;;;;14.55;9.20;;;;;;;;;;5074884;28;20313;-63
2022/10/13 14:14:39;;;;;;;12.23;8.30;;;;;;;;;;5068264;28;20290;-63
2022/10/13 14:17:06;;;;;;;12.32;8.40;;;;;;;;;;5088498;28;20309;-62
2022/10/13 14:19:34;;;;;;;13.02;8.02;;;;;;;;;;5061458;28;20228;-63
2022/10/13 14:22:01;;;;;;;11.95;8.25;;;;;;;;;;5059521;28;20337;-62
2022/10/13 14:24:35;;;;;;;11.85;8.35;;;;;;;;;;5080333;28;20205;-62
2022/10/13 14:27:02;;;;;;;9.98;7.03;;;;;;;;;;5073563;28;20315;-64
2022/10/13 14:29:30;;;;;;;8.90;8.00;;;;;;;;;;5077574;28;20247;-63
2022/10/13 14:31:57;;;;;;;13.05;8.18;;;;;;;;;;5062489;28;20727;-63
2022/10/13 14:34:25;;;;;;;15.02;9.00;;;;;;;;;;5066124;28;20545;-63
2022/10/13 14:36:52;;;;;;;13.32;8.20;;;;;;;;;;5062840;28;20324;-64